Time;durP1;ratioP1;P1;durP2;ratioP2;P2;SDS_P1;SDS_P2;PMS_P1;PMS_P2;Temp;Humidity;BMP_temperature;BMP_pressure;BME280_temperature;BME280_humidity;BME280_pressure;Samples;Min_cycle;Max_cycle;Signal;HPM_P1;HPM_P2
2022/08/18 00:01:49;;;;;;;2.87;2.57;;;;;;;;;;5109656;28;20262;-60
2022/08/18 00:04:19;;;;;;;5.90;3.10;;;;;;;;;;5098479;28;20232;-60
2022/08/18 00:07:08;;;;;;;3.40;3.10;;;;;;;;;;5098851;28;20213;-60
2022/08/18 00:09:37;;;;;;;3.40;3.10;;;;;;;;;;5098514;28;20204;-60
2022/08/18 00:12:07;;;;;;;2.83;2.63;;;;;;;;;;5098179;28;20238;-60
2022/08/18 00:14:36;;;;;;;3.00;2.70;;;;;;;;;;5098137;28;20261;-60
2022/08/18 00:17:04;;;;;;;3.37;3.07;;;;;;;;;;5098092;28;20239;-60
2022/08/18 00:19:32;;;;;;;5.20;3.90;;;;;;;;;;5098048;28;20593;-60
2022/08/18 00:22:17;;;;;;;4.03;3.20;;;;;;;;;;5115581;28;20237;-60
2022/08/18 00:24:45;;;;;;;3.30;2.40;;;;;;;;;;5111634;28;20232;-60
2022/08/18 00:27:16;;;;;;;3.33;3.03;;;;;;;;;;5098156;28;20203;-60
2022/08/18 00:29:46;;;;;;;3.23;2.93;;;;;;;;;;5098079;28;20567;-60
2022/08/18 00:32:14;;;;;;;3.43;3.13;;;;;;;;;;5097934;28;20213;-60
2022/08/18 00:34:42;;;;;;;3.50;3.20;;;;;;;;;;5097846;28;20232;-60
2022/08/18 00:37:10;;;;;;;3.40;3.10;;;;;;;;;;5097988;28;20207;-60
2022/08/18 00:39:38;;;;;;;5.60;3.97;;;;;;;;;;5098060;28;20267;-60
2022/08/18 00:42:13;;;;;;;3.90;3.57;;;;;;;;;;5097685;28;20204;-60
2022/08/18 00:44:59;;;;;;;3.63;3.33;;;;;;;;;;5098049;28;20266;-60
2022/08/18 00:47:28;;;;;;;4.43;3.20;;;;;;;;;;5098061;28;20197;-60
2022/08/18 00:50:11;;;;;;;4.23;3.17;;;;;;;;;;5097855;28;20281;-60
2022/08/18 00:52:42;;;;;;;3.80;3.50;;;;;;;;;;5097834;28;20207;-60
2022/08/18 00:55:11;;;;;;;3.87;3.47;;;;;;;;;;5097596;28;20479;-60
2022/08/18 00:57:41;;;;;;;4.57;3.93;;;;;;;;;;5099081;28;20641;-60
2022/08/18 01:00:12;;;;;;;5.47;3.60;;;;;;;;;;5106618;28;20200;-60
2022/08/18 01:02:46;;;;;;;4.17;3.63;;;;;;;;;;5122259;28;20205;-60
2022/08/18 01:05:16;;;;;;;3.67;3.37;;;;;;;;;;5122220;28;20232;-60
2022/08/18 01:07:45;;;;;;;6.63;4.13;;;;;;;;;;5122129;28;20249;-60
2022/08/18 01:10:15;;;;;;;6.67;3.80;;;;;;;;;;5122362;28;20206;-60
2022/08/18 01:12:44;;;;;;;4.57;4.17;;;;;;;;;;5121999;28;20206;-60
2022/08/18 01:15:16;;;;;;;4.03;3.63;;;;;;;;;;5122572;28;20209;-60
2022/08/18 01:23:45;;;;;;;4.10;3.43;;;;;;;;;;5121620;28;20223;-60
2022/08/18 01:26:13;;;;;;;4.27;3.17;;;;;;;;;;5102654;28;20202;-60
2022/08/18 01:28:43;;;;;;;3.60;3.30;;;;;;;;;;5101422;28;20254;-60
2022/08/18 01:31:12;;;;;;;3.80;3.40;;;;;;;;;;5101149;28;20207;-60
2022/08/18 01:33:42;;;;;;;3.90;3.40;;;;;;;;;;5101329;28;20263;-60
2022/08/18 01:36:15;;;;;;;3.80;3.23;;;;;;;;;;5108386;28;20212;-60
2022/08/18 01:38:45;;;;;;;5.33;3.50;;;;;;;;;;5121677;27;20261;-60
2022/08/18 01:41:13;;;;;;;3.40;3.10;;;;;;;;;;5121451;28;20641;-60
2022/08/18 01:43:57;;;;;;;3.63;3.30;;;;;;;;;;5121379;28;20232;-60
2022/08/18 01:46:26;;;;;;;4.37;3.00;;;;;;;;;;5121138;28;20210;-60
2022/08/18 01:48:54;;;;;;;3.83;3.07;;;;;;;;;;5121306;28;20241;-60
2022/08/18 01:51:23;;;;;;;4.83;3.50;;;;;;;;;;5120286;28;20240;-60
2022/08/18 01:54:10;;;;;;;4.37;3.73;;;;;;;;;;5120282;28;20258;-60
2022/08/18 01:56:39;;;;;;;4.97;3.23;;;;;;;;;;5120208;28;20236;-60
2022/08/18 01:59:09;;;;;;;3.23;2.80;;;;;;;;;;5120159;28;20256;-60
2022/08/18 02:01:38;;;;;;;3.20;2.90;;;;;;;;;;5103818;28;20239;-60
2022/08/18 02:04:16;;;;;;;4.47;3.03;;;;;;;;;;5099443;28;20230;-60
2022/08/18 02:07:02;;;;;;;3.50;3.27;;;;;;;;;;5107201;28;20218;-60
2022/08/18 02:09:32;;;;;;;3.57;3.27;;;;;;;;;;5119644;28;20204;-60
2022/08/18 02:12:01;;;;;;;3.33;3.03;;;;;;;;;;5119821;28;20561;-60
2022/08/18 02:14:29;;;;;;;3.83;3.53;;;;;;;;;;5119633;28;20354;-60
2022/08/18 02:16:59;;;;;;;3.67;3.33;;;;;;;;;;5119694;28;20203;-60
2022/08/18 02:19:32;;;;;;;3.83;3.20;;;;;;;;;;5119585;28;20246;-60
2022/08/18 02:22:00;;;;;;;3.87;3.50;;;;;;;;;;5119877;28;20219;-60
2022/08/18 02:24:28;;;;;;;4.07;3.67;;;;;;;;;;5114774;28;20760;-60
2022/08/18 02:26:57;;;;;;;4.30;3.70;;;;;;;;;;5099381;28;20212;-60
2022/08/18 02:29:25;;;;;;;3.97;3.63;;;;;;;;;;5099286;28;20228;-60
2022/08/18 02:31:53;;;;;;;5.20;3.77;;;;;;;;;;5098758;28;20237;-60
2022/08/18 02:34:21;;;;;;;5.80;3.70;;;;;;;;;;5098678;28;20221;-60
2022/08/18 02:36:52;;;;;;;4.07;3.23;;;;;;;;;;5098933;28;20274;-61
2022/08/18 02:39:20;;;;;;;3.70;3.40;;;;;;;;;;5110174;28;20258;-61
2022/08/18 02:41:48;;;;;;;4.97;3.27;;;;;;;;;;5098783;28;20280;-62
2022/08/18 02:44:17;;;;;;;6.47;3.70;;;;;;;;;;5098751;28;20264;-61
2022/08/18 02:46:45;;;;;;;4.47;3.80;;;;;;;;;;5111154;28;20650;-61
2022/08/18 02:49:13;;;;;;;4.97;3.37;;;;;;;;;;5116547;28;20727;-61
2022/08/18 02:51:45;;;;;;;4.90;4.27;;;;;;;;;;5068553;28;1379908;-59
2022/08/18 02:54:13;;;;;;;5.20;4.30;;;;;;;;;;5116621;28;20220;-59
2022/08/18 02:56:41;;;;;;;6.07;5.10;;;;;;;;;;5118544;28;20219;-60
2022/08/18 02:59:11;;;;;;;5.40;4.90;;;;;;;;;;5119591;28;20229;-60
2022/08/18 03:01:41;;;;;;;7.10;5.57;;;;;;;;;;5116998;28;20201;-60
2022/08/18 03:04:11;;;;;;;7.00;5.27;;;;;;;;;;5111116;28;20229;-60
2022/08/18 03:06:39;;;;;;;5.87;5.23;;;;;;;;;;5119944;28;20258;-60
2022/08/18 03:09:08;;;;;;;6.70;5.23;;;;;;;;;;5119780;28;20213;-61
2022/08/18 03:11:37;;;;;;;8.30;5.83;;;;;;;;;;5119740;28;20208;-61
2022/08/18 03:14:05;;;;;;;6.47;5.83;;;;;;;;;;5119633;28;20263;-62
2022/08/18 03:16:39;;;;;;;7.10;6.40;;;;;;;;;;5119996;28;20215;-61
2022/08/18 03:19:23;;;;;;;6.17;5.30;;;;;;;;;;5119460;28;20227;-61
2022/08/18 03:21:52;;;;;;;8.97;5.47;;;;;;;;;;5119290;28;20572;-62
2022/08/18 03:24:20;;;;;;;6.80;6.10;;;;;;;;;;5119084;27;20764;-61
2022/08/18 03:26:49;;;;;;;7.53;6.47;;;;;;;;;;5111919;28;20193;-62
2022/08/18 03:29:18;;;;;;;6.33;5.73;;;;;;;;;;5111323;28;20230;-62
2022/08/18 03:31:47;;;;;;;6.77;6.10;;;;;;;;;;5119157;28;20255;-61
2022/08/18 03:34:18;;;;;;;6.90;6.20;;;;;;;;;;5119352;28;20220;-59
2022/08/18 03:36:48;;;;;;;9.10;6.87;;;;;;;;;;5119593;28;20211;-60
2022/08/18 03:39:17;;;;;;;10.53;7.60;;;;;;;;;;5119195;28;20259;-62
2022/08/18 03:41:45;;;;;;;7.83;7.00;;;;;;;;;;5119591;28;20236;-62
2022/08/18 03:44:27;;;;;;;10.30;7.27;;;;;;;;;;5119141;27;20229;-61
2022/08/18 03:46:56;;;;;;;8.53;6.57;;;;;;;;;;5118898;28;20208;-61
2022/08/18 03:49:25;;;;;;;8.50;7.60;;;;;;;;;;5118921;28;20598;-62
2022/08/18 03:51:55;;;;;;;12.10;7.13;;;;;;;;;;5118788;28;20319;-61
2022/08/18 03:54:24;;;;;;;10.57;6.80;;;;;;;;;;5118618;28;20256;-60
2022/08/18 03:56:53;;;;;;;7.33;6.60;;;;;;;;;;5104330;28;20206;-62
2022/08/18 03:59:22;;;;;;;8.00;6.77;;;;;;;;;;5096482;28;20209;-61
2022/08/18 04:01:52;;;;;;;6.60;5.97;;;;;;;;;;5115210;28;20205;-61
2022/08/18 04:04:22;;;;;;;8.10;6.43;;;;;;;;;;5117066;28;20312;-61
2022/08/18 04:06:52;;;;;;;7.60;6.37;;;;;;;;;;5116911;28;20208;-62
2022/08/18 04:09:23;;;;;;;6.87;6.17;;;;;;;;;;5117074;28;20253;-61
2022/08/18 04:11:51;;;;;;;7.07;6.30;;;;;;;;;;5117079;28;20205;-62
2022/08/18 04:14:20;;;;;;;8.83;6.23;;;;;;;;;;5118847;28;20255;-61
2022/08/18 04:16:48;;;;;;;7.53;6.17;;;;;;;;;;5118221;28;20204;-61
2022/08/18 04:19:17;;;;;;;8.37;6.23;;;;;;;;;;5118511;28;20253;-59
2022/08/18 04:21:54;;;;;;;6.23;5.63;;;;;;;;;;5118605;28;20206;-59
2022/08/18 04:24:24;;;;;;;8.33;6.47;;;;;;;;;;5114675;28;20221;-61
2022/08/18 04:26:53;;;;;;;8.00;6.17;;;;;;;;;;5098145;28;20232;-60
2022/08/18 04:29:21;;;;;;;8.27;6.23;;;;;;;;;;5098241;28;20210;-60
2022/08/18 04:31:50;;;;;;;8.27;6.20;;;;;;;;;;5097889;28;20240;-59
2022/08/18 04:34:20;;;;;;;7.43;5.97;;;;;;;;;;5098180;28;20308;-60
2022/08/18 04:36:49;;;;;;;6.83;6.13;;;;;;;;;;5098058;28;20236;-62
2022/08/18 04:39:17;;;;;;;6.67;5.97;;;;;;;;;;5098065;28;20239;-60
2022/08/18 04:41:47;;;;;;;6.73;5.87;;;;;;;;;;5098029;28;20229;-60
2022/08/18 04:44:16;;;;;;;9.83;6.03;;;;;;;;;;5104962;28;20224;-60
2022/08/18 04:46:47;;;;;;;6.63;6.03;;;;;;;;;;5117877;28;20652;-60
2022/08/18 04:49:16;;;;;;;7.73;5.80;;;;;;;;;;5118380;28;20208;-60
2022/08/18 04:53:43;;;;;;;8.77;6.43;;;;;;;;;;5117999;28;20687;-60
2022/08/18 04:54:53;;;;;;;9.13;6.93;;;;;;;;;;5118202;28;20723;-60
2022/08/18 04:57:23;;;;;;;7.57;6.33;;;;;;;;;;5117982;28;20292;-61
2022/08/18 04:59:52;;;;;;;7.83;6.53;;;;;;;;;;5118031;28;20236;-60
2022/08/18 05:02:21;;;;;;;9.33;6.43;;;;;;;;;;5107899;28;20669;-61
2022/08/18 05:04:50;;;;;;;9.77;6.67;;;;;;;;;;5097879;28;20261;-60
2022/08/18 05:07:21;;;;;;;14.13;7.67;;;;;;;;;;5097677;28;20240;-60
2022/08/18 05:09:49;;;;;;;11.37;6.73;;;;;;;;;;5097822;28;20201;-60
2022/08/18 05:12:17;;;;;;;11.07;7.23;;;;;;;;;;5097827;28;20205;-62
2022/08/18 05:14:49;;;;;;;13.17;7.37;;;;;;;;;;5099188;28;20233;-62
2022/08/18 05:17:18;;;;;;;9.57;7.93;;;;;;;;;;5109859;28;20239;-62
2022/08/18 05:19:46;;;;;;;11.87;7.90;;;;;;;;;;5116301;28;20233;-62
2022/08/18 05:22:18;;;;;;;10.83;7.37;;;;;;;;;;5115200;28;20220;-62
2022/08/18 05:24:56;;;;;;;8.33;7.40;;;;;;;;;;5108517;28;20225;-62
2022/08/18 05:27:24;;;;;;;9.43;7.30;;;;;;;;;;5097301;28;20548;-62
2022/08/18 05:29:54;;;;;;;11.93;8.00;;;;;;;;;;5097691;28;20209;-62
2022/08/18 05:32:22;;;;;;;9.30;6.97;;;;;;;;;;5097165;28;20225;-62
2022/08/18 05:35:12;;;;;;;7.97;6.30;;;;;;;;;;5097346;28;20229;-62
2022/08/18 05:37:50;;;;;;;8.77;6.40;;;;;;;;;;5097250;28;20570;-62
2022/08/18 05:40:21;;;;;;;7.53;6.83;;;;;;;;;;5097132;28;20205;-62
2022/08/18 05:42:49;;;;;;;7.27;6.10;;;;;;;;;;5097592;28;20209;-62
2022/08/18 05:45:18;;;;;;;8.57;7.40;;;;;;;;;;5100765;28;20219;-62
2022/08/18 05:47:47;;;;;;;11.67;7.67;;;;;;;;;;5101105;28;20209;-62
2022/08/18 05:50:17;;;;;;;9.80;7.83;;;;;;;;;;5103801;28;20256;-62
2022/08/18 05:52:50;;;;;;;13.47;11.20;;;;;;;;;;5107677;28;20249;-62
2022/08/18 05:58:17;;;;;;;9.63;8.47;;;;;;;;;;5115880;28;20217;-63
2022/08/18 06:00:52;;;;;;;9.00;8.10;;;;;;;;;;5104897;27;20344;-64
2022/08/18 06:03:27;;;;;;;9.37;8.10;;;;;;;;;;5102716;28;20242;-64
2022/08/18 06:05:58;;;;;;;8.47;6.80;;;;;;;;;;5107276;28;20631;-64
2022/08/18 06:08:29;;;;;;;7.00;6.27;;;;;;;;;;5103520;28;20255;-64
2022/08/18 06:10:57;;;;;;;9.43;6.80;;;;;;;;;;5113567;28;20644;-64
2022/08/18 06:13:25;;;;;;;8.20;7.37;;;;;;;;;;5104528;28;20268;-64
2022/08/18 06:16:00;;;;;;;8.40;6.87;;;;;;;;;;5110294;28;20205;-63
2022/08/18 06:18:35;;;;;;;7.37;6.57;;;;;;;;;;5110022;28;20207;-64
2022/08/18 06:21:10;;;;;;;7.37;6.63;;;;;;;;;;5108214;28;20253;-64
2022/08/18 06:23:42;;;;;;;7.13;6.30;;;;;;;;;;5113623;28;20231;-64
2022/08/18 06:26:13;;;;;;;6.33;5.73;;;;;;;;;;5107724;28;20242;-64
2022/08/18 06:28:50;;;;;;;8.17;4.23;;;;;;;;;;5109562;28;20272;-64
2022/08/18 06:31:22;;;;;;;4.40;4.00;;;;;;;;;;5117314;28;20703;-64
2022/08/18 06:33:59;;;;;;;7.03;4.70;;;;;;;;;;5117958;28;20223;-63
2022/08/18 06:36:32;;;;;;;4.40;4.03;;;;;;;;;;5116393;28;20737;-64
2022/08/18 06:39:03;;;;;;;4.40;3.97;;;;;;;;;;5118608;28;20207;-64
2022/08/18 06:41:36;;;;;;;4.37;3.97;;;;;;;;;;5110726;28;20594;-63
2022/08/18 06:44:11;;;;;;;3.60;3.30;;;;;;;;;;5106054;27;20233;-64
2022/08/18 06:46:45;;;;;;;3.90;3.50;;;;;;;;;;5118632;28;20208;-64
2022/08/18 06:49:20;;;;;;;4.07;3.67;;;;;;;;;;5118351;28;20204;-64
2022/08/18 06:51:48;;;;;;;4.30;3.90;;;;;;;;;;5118833;28;20662;-64
2022/08/18 06:54:26;;;;;;;5.77;3.73;;;;;;;;;;5116373;27;20268;-64
2022/08/18 06:56:55;;;;;;;4.70;3.60;;;;;;;;;;5111583;28;20243;-64
2022/08/18 06:59:25;;;;;;;4.70;4.23;;;;;;;;;;5115545;27;20203;-64
2022/08/18 07:01:58;;;;;;;5.73;4.20;;;;;;;;;;5119401;27;20694;-64
2022/08/18 07:04:38;;;;;;;4.10;3.80;;;;;;;;;;5116941;27;20228;-64
2022/08/18 07:07:13;;;;;;;4.17;3.13;;;;;;;;;;5116079;28;20230;-64
2022/08/18 07:09:41;;;;;;;3.80;3.43;;;;;;;;;;5118998;28;20200;-64
2022/08/18 07:12:10;;;;;;;3.77;3.20;;;;;;;;;;5116858;28;20707;-64
2022/08/18 07:14:46;;;;;;;3.57;3.27;;;;;;;;;;5115125;28;20256;-63
2022/08/18 07:17:21;;;;;;;5.87;3.97;;;;;;;;;;5115630;28;20231;-64
2022/08/18 07:20:10;;;;;;;4.33;3.70;;;;;;;;;;5117821;28;20660;-63
2022/08/18 07:22:52;;;;;;;4.83;4.40;;;;;;;;;;5116472;28;20256;-63
2022/08/18 07:25:23;;;;;;;4.20;3.80;;;;;;;;;;5113048;28;20206;-64
2022/08/18 07:27:54;;;;;;;4.40;4.00;;;;;;;;;;5108347;28;20585;-64
2022/08/18 07:30:31;;;;;;;5.47;4.87;;;;;;;;;;5118541;28;20618;-64
2022/08/18 07:33:05;;;;;;;5.07;4.67;;;;;;;;;;5110425;28;20229;-63
2022/08/18 07:35:37;;;;;;;6.67;6.00;;;;;;;;;;5130081;27;20679;-64
2022/08/18 07:38:14;;;;;;;4.70;4.17;;;;;;;;;;5119044;28;20231;-64
2022/08/18 07:41:05;;;;;;;4.40;4.10;;;;;;;;;;5108366;28;20205;-64
2022/08/18 07:43:37;;;;;;;3.60;3.30;;;;;;;;;;5118269;28;20326;-64
2022/08/18 07:46:10;;;;;;;7.20;4.27;;;;;;;;;;5118364;28;20240;-64
2022/08/18 07:48:39;;;;;;;5.03;3.63;;;;;;;;;;5106562;28;20292;-64
2022/08/18 07:51:12;;;;;;;6.80;3.40;;;;;;;;;;5101884;28;20239;-64
2022/08/18 07:53:47;;;;;;;4.60;3.50;;;;;;;;;;5113845;28;20650;-63
2022/08/18 07:56:28;;;;;;;5.63;3.20;;;;;;;;;;5103848;28;20673;-64
2022/08/18 07:58:58;;;;;;;5.60;3.13;;;;;;;;;;5116663;28;20217;-63
2022/08/18 08:01:29;;;;;;;3.23;2.93;;;;;;;;;;5113926;28;20250;-64
2022/08/18 08:04:05;;;;;;;3.10;2.90;;;;;;;;;;5106742;28;20218;-62
2022/08/18 08:06:39;;;;;;;3.27;2.80;;;;;;;;;;5110279;27;20295;-64
2022/08/18 08:09:10;;;;;;;3.50;3.20;;;;;;;;;;5115068;28;20222;-63
2022/08/18 08:11:43;;;;;;;3.83;2.83;;;;;;;;;;5108683;28;20681;-63
2022/08/18 08:14:18;;;;;;;3.43;3.10;;;;;;;;;;5112753;28;20286;-62
2022/08/18 08:17:03;;;;;;;3.87;2.83;;;;;;;;;;5100113;28;20203;-62
2022/08/18 08:19:48;;;;;;;3.60;2.90;;;;;;;;;;5117857;28;20235;-63
2022/08/18 08:22:31;;;;;;;3.20;2.90;;;;;;;;;;5105445;28;20228;-64
2022/08/18 08:25:03;;;;;;;3.23;2.93;;;;;;;;;;5113114;28;20667;-64
2022/08/18 08:27:36;;;;;;;3.43;2.90;;;;;;;;;;5105366;28;20211;-64
2022/08/18 08:30:05;;;;;;;3.83;2.73;;;;;;;;;;5117919;28;20679;-64
2022/08/18 08:32:35;;;;;;;3.73;2.70;;;;;;;;;;5113598;28;20552;-62
2022/08/18 08:35:06;;;;;;;3.20;2.67;;;;;;;;;;5105404;28;20232;-64
2022/08/18 08:37:42;;;;;;;5.80;2.70;;;;;;;;;;5103696;28;23281;-63
2022/08/18 08:40:15;;;;;;;3.63;2.87;;;;;;;;;;5111371;28;20213;-63
2022/08/18 08:42:46;;;;;;;3.47;3.17;;;;;;;;;;5113619;28;20219;-61
2022/08/18 08:45:16;;;;;;;4.87;2.70;;;;;;;;;;5115065;28;20199;-61
2022/08/18 08:47:48;;;;;;;2.87;2.60;;;;;;;;;;5113830;28;20207;-62
2022/08/18 08:50:18;;;;;;;3.93;2.53;;;;;;;;;;5114634;28;20891;-63
2022/08/18 08:52:48;;;;;;;3.53;2.80;;;;;;;;;;5101862;28;20222;-63
2022/08/18 08:55:20;;;;;;;3.30;3.00;;;;;;;;;;5112573;28;20213;-63
2022/08/18 08:57:50;;;;;;;3.03;2.70;;;;;;;;;;5105678;28;20206;-63
2022/08/18 09:00:19;;;;;;;3.03;2.80;;;;;;;;;;5106798;28;20209;-63
2022/08/18 09:02:54;;;;;;;3.07;2.87;;;;;;;;;;5109784;28;20237;-63
2022/08/18 09:05:24;;;;;;;3.37;2.43;;;;;;;;;;5114362;28;20643;-63
2022/08/18 09:08:10;;;;;;;4.67;2.97;;;;;;;;;;5111788;28;20338;-63
2022/08/18 09:10:48;;;;;;;4.27;2.70;;;;;;;;;;5111494;28;20231;-63
2022/08/18 09:13:43;;;;;;;3.10;2.87;;;;;;;;;;5107827;28;20222;-62
2022/08/18 09:16:17;;;;;;;3.20;2.90;;;;;;;;;;5069802;28;20228;-62
2022/08/18 09:18:56;;;;;;;3.23;2.80;;;;;;;;;;5115014;28;20264;-63
2022/08/18 09:21:33;;;;;;;3.30;3.00;;;;;;;;;;5111338;28;20206;-63
2022/08/18 09:24:20;;;;;;;4.37;3.00;;;;;;;;;;5110612;28;20250;-63
2022/08/18 09:26:51;;;;;;;2.63;2.43;;;;;;;;;;5106645;28;20209;-63
2022/08/18 09:29:25;;;;;;;3.60;2.50;;;;;;;;;;5121250;27;20211;-63
2022/08/18 09:32:26;;;;;;;3.10;2.90;;;;;;;;;;5110040;27;20209;-63
2022/08/18 09:35:01;;;;;;;4.00;2.73;;;;;;;;;;5051600;28;20261;-63
2022/08/18 09:37:39;;;;;;;4.60;2.83;;;;;;;;;;5054146;28;20208;-63
2022/08/18 09:43:32;;;;;;;6.23;2.60;;;;;;;;;;5120127;28;20224;-60
2022/08/18 09:46:04;;;;;;;2.93;2.73;;;;;;;;;;5118027;28;20203;-61
2022/08/18 09:48:34;;;;;;;2.60;2.40;;;;;;;;;;5108380;28;20211;-61
2022/08/18 09:51:36;;;;;;;4.13;2.80;;;;;;;;;;5116495;28;20722;-60
2022/08/18 09:54:16;;;;;;;3.17;2.70;;;;;;;;;;5108607;28;20217;-61
2022/08/18 09:57:17;;;;;;;2.70;2.50;;;;;;;;;;5102391;28;20248;-60
2022/08/18 10:00:14;;;;;;;2.70;2.53;;;;;;;;;;5111204;27;20295;-62
2022/08/18 10:03:09;;;;;;;2.40;2.20;;;;;;;;;;5118607;27;20210;-63
2022/08/18 10:05:37;;;;;;;2.70;2.50;;;;;;;;;;5112961;28;20293;-63
2022/08/18 10:08:24;;;;;;;2.70;2.50;;;;;;;;;;5119926;28;20206;-63
2022/08/18 10:10:55;;;;;;;3.13;2.50;;;;;;;;;;5107571;28;20209;-63
2022/08/18 10:13:50;;;;;;;3.70;2.47;;;;;;;;;;5117571;28;20223;-63
2022/08/18 10:16:21;;;;;;;5.27;4.77;;;;;;;;;;5114922;27;20215;-63
2022/08/18 10:18:56;;;;;;;3.53;3.03;;;;;;;;;;5107956;28;20210;-64
2022/08/18 10:21:27;;;;;;;2.90;2.70;;;;;;;;;;5120350;27;20247;-64
2022/08/18 10:23:59;;;;;;;3.10;2.83;;;;;;;;;;5109734;28;20266;-64
2022/08/18 10:27:02;;;;;;;3.30;3.00;;;;;;;;;;5116039;28;20212;-64
2022/08/18 10:29:54;;;;;;;3.03;2.80;;;;;;;;;;5099168;28;20213;-64
2022/08/18 10:32:44;;;;;;;2.70;2.50;;;;;;;;;;5119911;28;20225;-64
2022/08/18 10:35:52;;;;;;;3.73;2.87;;;;;;;;;;5116773;28;20294;-64
2022/08/18 10:38:23;;;;;;;3.20;2.90;;;;;;;;;;5101442;28;20236;-64
2022/08/18 10:41:00;;;;;;;3.33;3.03;;;;;;;;;;5112203;27;20244;-64
2022/08/18 10:43:43;;;;;;;3.37;3.17;;;;;;;;;;5113032;28;20699;-64
2022/08/18 10:46:27;;;;;;;3.27;2.97;;;;;;;;;;5112585;27;20209;-64
2022/08/18 10:49:14;;;;;;;4.87;3.93;;;;;;;;;;5108437;28;20210;-64
2022/08/18 10:51:50;;;;;;;3.60;2.93;;;;;;;;;;5106356;27;20235;-64
2022/08/18 10:54:33;;;;;;;3.83;3.07;;;;;;;;;;5108398;27;20232;-64
2022/08/18 10:57:20;;;;;;;2.90;2.70;;;;;;;;;;5109615;28;20211;-64
2022/08/18 10:59:52;;;;;;;3.87;2.83;;;;;;;;;;5111842;27;20234;-64
2022/08/18 11:02:34;;;;;;;4.37;3.17;;;;;;;;;;5119257;28;20268;-65
2022/08/18 11:05:05;;;;;;;4.30;2.97;;;;;;;;;;5111172;28;20239;-64
2022/08/18 11:07:37;;;;;;;3.20;2.97;;;;;;;;;;5114301;28;20258;-64
2022/08/18 11:10:19;;;;;;;3.83;3.50;;;;;;;;;;5109590;28;20239;-64
2022/08/18 11:13:12;;;;;;;4.83;2.93;;;;;;;;;;5107952;28;20207;-64
2022/08/18 11:15:49;;;;;;;3.23;2.50;;;;;;;;;;5120978;27;20568;-64
2022/08/18 11:18:27;;;;;;;3.97;3.27;;;;;;;;;;5108919;28;20210;-64
2022/08/18 11:21:11;;;;;;;3.40;3.13;;;;;;;;;;5115559;28;20261;-64
2022/08/18 11:23:40;;;;;;;3.10;2.63;;;;;;;;;;5114571;27;20263;-64
2022/08/18 11:26:13;;;;;;;4.00;2.87;;;;;;;;;;5118779;28;20245;-65
2022/08/18 11:28:45;;;;;;;3.03;2.80;;;;;;;;;;5118898;28;20206;-63
2022/08/18 11:31:33;;;;;;;3.53;2.77;;;;;;;;;;5099388;28;20216;-63
2022/08/18 11:34:11;;;;;;;3.30;3.00;;;;;;;;;;5111881;28;20227;-64
2022/08/18 11:36:56;;;;;;;5.10;3.70;;;;;;;;;;5109760;28;20239;-63
2022/08/18 11:39:25;;;;;;;3.70;2.93;;;;;;;;;;5117507;28;20207;-63
2022/08/18 11:42:08;;;;;;;3.53;3.23;;;;;;;;;;5115888;28;20207;-63
2022/08/18 11:44:53;;;;;;;3.23;2.93;;;;;;;;;;5108307;28;20223;-63
2022/08/18 11:47:22;;;;;;;2.90;2.70;;;;;;;;;;5115329;28;20269;-63
2022/08/18 11:50:12;;;;;;;3.07;2.77;;;;;;;;;;5112121;28;20245;-63
2022/08/18 11:52:48;;;;;;;3.20;2.60;;;;;;;;;;5118817;28;20215;-63
2022/08/18 11:55:22;;;;;;;2.87;2.67;;;;;;;;;;5118462;28;20253;-63
2022/08/18 11:57:53;;;;;;;5.50;3.10;;;;;;;;;;5118836;28;20643;-63
2022/08/18 12:00:45;;;;;;;3.37;2.77;;;;;;;;;;5107105;28;20230;-63
2022/08/18 12:03:18;;;;;;;2.50;2.30;;;;;;;;;;5116250;28;20226;-63
2022/08/18 12:05:50;;;;;;;2.73;2.50;;;;;;;;;;5114290;28;20222;-63
2022/08/18 12:08:26;;;;;;;2.70;2.50;;;;;;;;;;5109231;28;20192;-63
2022/08/18 12:11:15;;;;;;;2.70;2.50;;;;;;;;;;5113956;28;20207;-63
2022/08/18 12:14:03;;;;;;;4.00;2.37;;;;;;;;;;5115207;28;20212;-63
2022/08/18 12:16:51;;;;;;;2.80;2.60;;;;;;;;;;5112570;28;20659;-62
2022/08/18 12:19:21;;;;;;;2.57;2.40;;;;;;;;;;5112847;28;20617;-63
2022/08/18 12:21:53;;;;;;;2.93;2.60;;;;;;;;;;5112397;28;20199;-63
2022/08/18 12:24:23;;;;;;;3.83;2.50;;;;;;;;;;5112933;28;20311;-63
2022/08/18 12:27:03;;;;;;;2.47;2.27;;;;;;;;;;5114116;28;20193;-63
2022/08/18 12:29:48;;;;;;;2.90;2.70;;;;;;;;;;5114517;28;20613;-62
2022/08/18 12:32:16;;;;;;;3.70;2.47;;;;;;;;;;5113433;28;20232;-63
2022/08/18 12:35:05;;;;;;;2.17;2.07;;;;;;;;;;5101218;28;20213;-62
2022/08/18 12:37:55;;;;;;;2.63;2.40;;;;;;;;;;5113932;28;20209;-64
2022/08/18 12:40:40;;;;;;;2.60;2.10;;;;;;;;;;5110735;28;20214;-62
2022/08/18 12:43:09;;;;;;;2.70;2.50;;;;;;;;;;5117906;28;20219;-62
2022/08/18 12:45:37;;;;;;;2.83;2.40;;;;;;;;;;5117605;28;20230;-63
2022/08/18 12:48:06;;;;;;;2.17;2.07;;;;;;;;;;5118099;28;20214;-62
2022/08/18 12:50:34;;;;;;;2.70;2.43;;;;;;;;;;5117772;28;20714;-61
2022/08/18 12:53:18;;;;;;;3.17;2.27;;;;;;;;;;5120503;28;20232;-61
2022/08/18 12:56:07;;;;;;;2.40;2.20;;;;;;;;;;5122659;28;20217;-61
2022/08/18 12:58:38;;;;;;;2.73;2.53;;;;;;;;;;5122257;27;20207;-63
2022/08/18 13:01:07;;;;;;;5.23;2.37;;;;;;;;;;5121938;28;20696;-63
2022/08/18 13:03:35;;;;;;;2.60;2.40;;;;;;;;;;5122224;28;20227;-63
2022/08/18 13:06:04;;;;;;;3.93;2.70;;;;;;;;;;5120353;28;20788;-62
2022/08/18 13:08:34;;;;;;;2.50;2.30;;;;;;;;;;5120423;28;20216;-61
2022/08/18 13:11:16;;;;;;;3.27;2.07;;;;;;;;;;5115182;28;20207;-61
2022/08/18 13:13:51;;;;;;;2.57;2.37;;;;;;;;;;5108303;28;20780;-61
2022/08/18 13:16:23;;;;;;;3.37;2.43;;;;;;;;;;5119785;28;20202;-61
2022/08/18 13:19:06;;;;;;;2.67;2.47;;;;;;;;;;5112262;28;20662;-62
2022/08/18 13:21:37;;;;;;;2.60;2.40;;;;;;;;;;5120906;28;20211;-63
2022/08/18 13:24:09;;;;;;;2.20;2.00;;;;;;;;;;5110264;28;20249;-62
2022/08/18 13:26:41;;;;;;;2.83;2.13;;;;;;;;;;5120468;28;20732;-63
2022/08/18 13:29:12;;;;;;;3.37;2.20;;;;;;;;;;5122053;27;20212;-63
2022/08/18 13:31:40;;;;;;;2.40;2.20;;;;;;;;;;5121675;28;20250;-62
2022/08/18 13:34:22;;;;;;;2.07;1.80;;;;;;;;;;5121535;28;20580;-62
2022/08/18 13:36:51;;;;;;;2.60;2.40;;;;;;;;;;5121714;28;20686;-62
2022/08/18 13:39:21;;;;;;;2.30;2.17;;;;;;;;;;5121726;28;20217;-63
2022/08/18 13:41:52;;;;;;;2.60;2.40;;;;;;;;;;5121532;28;20232;-62
2022/08/18 13:44:21;;;;;;;2.50;1.87;;;;;;;;;;5121589;28;20766;-62
2022/08/18 13:46:54;;;;;;;4.37;2.60;;;;;;;;;;5121254;28;20294;-62
2022/08/18 13:49:23;;;;;;;2.20;2.10;;;;;;;;;;5118054;28;20253;-63
2022/08/18 13:51:58;;;;;;;3.43;2.00;;;;;;;;;;5121158;28;20321;-62
2022/08/18 13:54:32;;;;;;;1.93;1.80;;;;;;;;;;5121158;28;20706;-63
2022/08/18 13:57:02;;;;;;;2.00;1.90;;;;;;;;;;5121643;28;20237;-63
2022/08/18 13:59:32;;;;;;;3.50;1.80;;;;;;;;;;5121433;28;20246;-63
2022/08/18 14:02:01;;;;;;;2.73;2.33;;;;;;;;;;5120880;28;20216;-63
2022/08/18 14:04:29;;;;;;;2.70;2.43;;;;;;;;;;5120364;28;20307;-63
2022/08/18 14:07:00;;;;;;;2.07;1.87;;;;;;;;;;5114848;28;20197;-63
2022/08/18 14:09:37;;;;;;;2.20;2.03;;;;;;;;;;5110145;28;20209;-63
2022/08/18 14:12:06;;;;;;;2.23;2.03;;;;;;;;;;5116704;27;20194;-61
2022/08/18 14:14:49;;;;;;;2.10;1.97;;;;;;;;;;5117970;28;20224;-61
2022/08/18 14:17:19;;;;;;;2.60;2.13;;;;;;;;;;5118884;28;20793;-61
2022/08/18 14:28:23;;;;;;;4.87;2.17;;;;;;;;;;5118811;28;20303;-61
2022/08/18 14:30:52;;;;;;;2.00;1.90;;;;;;;;;;5118834;28;20236;-61
2022/08/18 14:33:22;;;;;;;2.83;1.80;;;;;;;;;;5119916;28;20228;-62
2022/08/18 14:36:10;;;;;;;2.33;2.00;;;;;;;;;;5117227;28;20211;-61
2022/08/18 14:38:39;;;;;;;1.90;1.80;;;;;;;;;;5120718;28;20258;-61
2022/08/18 14:41:10;;;;;;;2.50;2.30;;;;;;;;;;5120292;28;20197;-61
2022/08/18 14:43:40;;;;;;;3.03;2.00;;;;;;;;;;5114598;28;20222;-61
2022/08/18 14:46:28;;;;;;;2.00;1.80;;;;;;;;;;5118916;28;20218;-62
2022/08/18 14:48:59;;;;;;;3.73;1.67;;;;;;;;;;5117150;28;20201;-61
2022/08/18 14:51:31;;;;;;;1.90;1.80;;;;;;;;;;5116881;28;20266;-61
2022/08/18 14:54:00;;;;;;;2.20;2.00;;;;;;;;;;5117363;28;20309;-61
2022/08/18 14:56:30;;;;;;;2.10;2.00;;;;;;;;;;5116811;28;20267;-61
2022/08/18 14:59:06;;;;;;;1.77;1.67;;;;;;;;;;5116611;28;20201;-61
2022/08/18 15:01:34;;;;;;;2.00;1.77;;;;;;;;;;5116715;28;20284;-61
2022/08/18 15:04:10;;;;;;;1.87;1.70;;;;;;;;;;5117532;28;20233;-61
2022/08/18 15:06:46;;;;;;;1.93;1.73;;;;;;;;;;5116827;28;20703;-61
2022/08/18 15:09:24;;;;;;;2.03;1.93;;;;;;;;;;5118966;28;20214;-61
2022/08/18 15:11:57;;;;;;;2.60;2.10;;;;;;;;;;5112672;28;20201;-61
2022/08/18 15:14:26;;;;;;;2.43;2.03;;;;;;;;;;5115321;28;20218;-61
2022/08/18 15:17:01;;;;;;;2.77;1.87;;;;;;;;;;5118940;28;20192;-61
2022/08/18 15:19:29;;;;;;;3.07;2.00;;;;;;;;;;5117203;28;20208;-61
2022/08/18 15:27:52;;;;;;;2.00;1.90;;;;;;;;;;5118026;28;20204;-60
2022/08/18 15:30:21;;;;;;;2.00;1.90;;;;;;;;;;5113518;28;20231;-61
2022/08/18 15:32:49;;;;;;;2.90;2.07;;;;;;;;;;5116987;28;20610;-61
2022/08/18 15:35:18;;;;;;;2.63;1.97;;;;;;;;;;5119635;28;20205;-61
2022/08/18 15:37:47;;;;;;;2.40;1.90;;;;;;;;;;5113720;28;20198;-60
2022/08/18 15:40:19;;;;;;;3.57;2.13;;;;;;;;;;5100537;28;20200;-60
2022/08/18 15:43:06;;;;;;;2.13;1.97;;;;;;;;;;5107624;28;20262;-62
2022/08/18 15:45:39;;;;;;;2.47;1.73;;;;;;;;;;5118886;28;20680;-59
2022/08/18 15:48:23;;;;;;;4.73;2.00;;;;;;;;;;5119479;28;20215;-60
2022/08/18 15:50:51;;;;;;;6.47;1.70;;;;;;;;;;5114784;28;20261;-60